createdAt,value
2023-04-16T00:00:35.056Z,95780.47
2023-04-16T00:03:02.384Z,95774.22
2023-04-16T00:05:29.860Z,95776.72
2023-04-16T00:07:57.104Z,95780.31
2023-04-16T00:10:24.444Z,95780.59
2023-04-16T00:12:51.781Z,95786.13
2023-04-16T00:15:19.081Z,95790.44
2023-04-16T00:17:46.435Z,95781.28
2023-04-16T00:20:13.770Z,95779.19
2023-04-16T00:22:41.040Z,95785.97
2023-04-16T00:25:08.526Z,95785.28
2023-04-16T00:27:35.851Z,95788.06
2023-04-16T00:30:03.656Z,95780.00
2023-04-16T00:32:31.087Z,95780.84
2023-04-16T00:34:58.444Z,95772.81
2023-04-16T00:37:25.787Z,95775.56
2023-04-16T00:39:53.141Z,95777.38
2023-04-16T00:42:20.352Z,95776.03
2023-04-16T00:44:47.758Z,95771.44
2023-04-16T00:47:15.177Z,95772.13
2023-04-16T00:49:42.662Z,95774.78
2023-04-16T00:52:12.368Z,95775.47
2023-04-16T00:54:40.346Z,95780.59
2023-04-16T00:57:07.978Z,95781.16
2023-04-16T00:59:35.201Z,95781.97
2023-04-16T01:02:03.271Z,95781.00
2023-04-16T01:04:31.341Z,95786.56
2023-04-16T01:06:58.723Z,95783.47
2023-04-16T01:09:25.966Z,95783.59
2023-04-16T01:11:53.292Z,95785.00
2023-04-16T01:14:20.732Z,95785.00
2023-04-16T01:16:48.244Z,95782.25
2023-04-16T01:19:15.852Z,95782.66
2023-04-16T01:21:43.223Z,95786.72
2023-04-16T01:24:10.473Z,95786.41
2023-04-16T01:26:37.789Z,95786.97
2023-04-16T01:29:05.142Z,95791.41
2023-04-16T01:31:33.419Z,95791.69
2023-04-16T01:34:23.664Z,95790.56
2023-04-16T01:36:51.561Z,95788.91
2023-04-16T01:39:20.016Z,95792.94
2023-04-16T01:41:47.351Z,95791.25
2023-04-16T01:44:14.543Z,95795.81
2023-04-16T01:46:44.462Z,95797.78
2023-04-16T01:49:11.883Z,95793.22
2023-04-16T01:51:39.295Z,95801.41
2023-04-16T01:54:06.636Z,95804.31
2023-04-16T01:56:34.048Z,95799.88
2023-04-16T01:59:01.312Z,95799.47
2023-04-16T02:01:34.986Z,95806.97
2023-04-16T02:04:03.151Z,95803.78
2023-04-16T02:06:32.157Z,95807.38
2023-04-16T02:08:59.377Z,95802.66
2023-04-16T02:11:26.915Z,95800.88
2023-04-16T02:13:55.054Z,95798.38
2023-04-16T02:16:22.483Z,95801.97
2023-04-16T02:18:52.842Z,95804.31
2023-04-16T02:21:22.362Z,95800.31
2023-04-16T02:23:52.202Z,95796.69
2023-04-16T02:26:26.709Z,95793.78
2023-04-16T02:28:56.786Z,95799.88
2023-04-16T02:31:30.088Z,95799.31
2023-04-16T02:33:58.267Z,95810.25
2023-04-16T02:36:26.031Z,95803.03
2023-04-16T02:38:55.457Z,95804.00
2023-04-16T02:41:22.714Z,95807.78
2023-04-16T02:43:50.026Z,95815.53
2023-04-16T02:46:17.453Z,95815.25
2023-04-16T02:48:44.906Z,95820.50
2023-04-16T02:51:12.176Z,95826.44
2023-04-16T02:53:39.558Z,95822.72
2023-04-16T02:56:07.558Z,95828.38
2023-04-16T02:58:34.753Z,95823.28
2023-04-16T03:01:02.182Z,95824.50
2023-04-16T03:03:29.780Z,95820.91
2023-04-16T03:05:57.180Z,95825.59
2023-04-16T03:08:24.516Z,95822.44
2023-04-16T03:10:52.019Z,95815.94
2023-04-16T03:13:19.384Z,95818.97
2023-04-16T03:15:50.432Z,95822.03
2023-04-16T03:18:17.892Z,95823.72
2023-04-16T03:20:45.218Z,95826.34
2023-04-16T03:23:12.508Z,95824.25
2023-04-16T03:25:41.284Z,95823.16
2023-04-16T03:28:10.055Z,95826.22
2023-04-16T03:30:38.362Z,95830.50
2023-04-16T03:33:07.021Z,95830.94
2023-04-16T03:35:35.132Z,95827.22
2023-04-16T03:38:03.265Z,95827.34
2023-04-16T03:40:30.690Z,95836.91
2023-04-16T03:43:00.463Z,95834.94
2023-04-16T03:45:28.842Z,95843.00
2023-04-16T03:47:56.546Z,95845.47
2023-04-16T03:50:26.265Z,95844.22
2023-04-16T03:52:53.551Z,95840.22
2023-04-16T03:55:20.852Z,95847.13
2023-04-16T03:57:48.038Z,95842.16
2023-04-16T04:00:17.146Z,95852.53
2023-04-16T04:03:00.054Z,95845.13
2023-04-16T04:05:27.993Z,95854.41
2023-04-16T04:07:55.206Z,95849.94
2023-04-16T04:10:23.351Z,95859.38
2023-04-16T04:12:50.993Z,95854.50
2023-04-16T04:15:18.525Z,95866.44
2023-04-16T04:17:46.471Z,95861.31
2023-04-16T04:20:14.011Z,95867.28
2023-04-16T04:22:44.622Z,95864.06
2023-04-16T04:25:12.856Z,95869.50
2023-04-16T04:27:40.589Z,95868.38
2023-04-16T04:30:09.263Z,95870.75
2023-04-16T04:32:36.645Z,95862.72
2023-04-16T04:35:04.396Z,95871.59
2023-04-16T04:37:31.841Z,95863.41
2023-04-16T04:39:59.642Z,95869.66
2023-04-16T04:42:27.581Z,95865.75
2023-04-16T04:44:55.653Z,95876.97
2023-04-16T04:47:24.047Z,95878.22
2023-04-16T04:49:53.522Z,95879.34
2023-04-16T04:52:21.108Z,95882.00
2023-04-16T04:54:50.010Z,95878.19
2023-04-16T04:57:17.469Z,95883.63
2023-04-16T04:59:45.121Z,95884.22
2023-04-16T05:02:14.421Z,95892.81
2023-04-16T05:04:41.782Z,95888.88
2023-04-16T05:07:09.044Z,95892.53
2023-04-16T05:09:36.324Z,95889.91
2023-04-16T05:12:04.663Z,95884.50
2023-04-16T05:14:31.917Z,95892.00
2023-04-16T05:16:59.384Z,95902.25
2023-04-16T05:19:26.605Z,95899.22
2023-04-16T05:21:54.881Z,95906.13
2023-04-16T05:24:22.760Z,95904.75
2023-04-16T05:26:50.043Z,95907.44
2023-04-16T05:29:17.413Z,95911.31
2023-04-16T05:31:44.883Z,95910.91
2023-04-16T05:34:12.243Z,95914.38
2023-04-16T05:36:39.656Z,95909.13
2023-04-16T05:39:08.312Z,95914.81
2023-04-16T05:41:35.793Z,95916.75
2023-04-16T05:44:03.115Z,95921.91
2023-04-16T05:46:30.461Z,95924.44
2023-04-16T05:48:57.689Z,95919.44
2023-04-16T05:51:26.637Z,95922.34
2023-04-16T05:53:53.949Z,95920.38
2023-04-16T05:56:22.567Z,95916.91
2023-04-16T05:58:49.818Z,95920.81
2023-04-16T06:01:17.121Z,95924.28
2023-04-16T06:03:45.732Z,95922.34
2023-04-16T06:06:13.398Z,95934.72
2023-04-16T06:08:40.639Z,95931.81
2023-04-16T06:11:07.969Z,95932.38
2023-04-16T06:13:35.402Z,95934.88
2023-04-16T06:16:02.808Z,95942.50
2023-04-16T06:18:30.152Z,95936.41
2023-04-16T06:20:59.491Z,95936.97
2023-04-16T06:23:26.799Z,95936.28
2023-04-16T06:25:54.728Z,95940.72
2023-04-16T06:28:22.277Z,95932.78
2023-04-16T06:30:49.597Z,95947.09
2023-04-16T06:33:17.141Z,95941.81
2023-04-16T06:35:44.379Z,95948.06
2023-04-16T06:38:11.691Z,95955.59
2023-04-16T06:40:39.167Z,95950.69
2023-04-16T06:43:06.666Z,95954.41
2023-04-16T06:45:33.998Z,95949.69
2023-04-16T06:48:01.966Z,95961.53
2023-04-16T06:50:29.249Z,95963.75
2023-04-16T06:52:56.996Z,95960.41
2023-04-16T06:55:24.319Z,95961.94
2023-04-16T06:57:51.617Z,95969.88
2023-04-16T07:00:19.199Z,95968.06
2023-04-16T07:02:46.720Z,95964.00
2023-04-16T07:05:14.109Z,95963.88
2023-04-16T07:07:41.523Z,95977.53
2023-04-16T07:10:09.177Z,95973.34
2023-04-16T07:12:36.652Z,95976.38
2023-04-16T07:15:04.150Z,95968.41
2023-04-16T07:17:31.469Z,95964.63
2023-04-16T07:19:58.854Z,95966.22
2023-04-16T07:22:26.232Z,95970.03
2023-04-16T07:24:53.440Z,95973.03
2023-04-16T07:27:20.722Z,95970.38
2023-04-16T07:29:48.007Z,95966.25
2023-04-16T07:32:15.612Z,95964.41
2023-04-16T07:34:43.125Z,95963.38
2023-04-16T07:37:10.440Z,95963.75
2023-04-16T07:39:37.788Z,95967.59
2023-04-16T07:42:05.116Z,95972.44
2023-04-16T07:44:32.439Z,95968.13
2023-04-16T07:46:59.856Z,95975.72
2023-04-16T07:49:27.139Z,95976.28
2023-04-16T07:51:54.409Z,95973.81
2023-04-16T07:54:21.831Z,95973.03
2023-04-16T07:56:49.128Z,95976.38
2023-04-16T07:59:22.697Z,95972.84
2023-04-16T08:01:50.956Z,95979.19
2023-04-16T08:04:23.514Z,95981.69
2023-04-16T08:06:51.991Z,95981.09
2023-04-16T08:09:24.256Z,95982.25
2023-04-16T08:11:51.706Z,95987.44
2023-04-16T08:14:19.008Z,95986.69
2023-04-16T08:16:46.556Z,95990.47
2023-04-16T08:19:13.827Z,95994.59
2023-04-16T08:21:41.416Z,96001.97
2023-04-16T08:24:08.702Z,96005.44
2023-04-16T08:26:36.357Z,95999.63
2023-04-16T08:29:03.661Z,96004.00
2023-04-16T08:31:31.101Z,96003.53
2023-04-16T08:33:58.462Z,96005.66
2023-04-16T08:36:26.041Z,96007.25
2023-04-16T08:38:53.265Z,96006.34
2023-04-16T08:41:22.553Z,96009.34
2023-04-16T08:43:52.232Z,96000.47
2023-04-16T08:46:23.279Z,96000.97
2023-04-16T08:48:55.588Z,96007.97
2023-04-16T08:51:24.536Z,96009.00
2023-04-16T08:54:05.825Z,96009.13
2023-04-16T08:56:37.401Z,96012.50
2023-04-16T08:59:05.941Z,96004.72
2023-04-16T09:01:33.906Z,96014.63
2023-04-16T09:04:16.333Z,96018.03
2023-04-16T09:06:44.465Z,96020.91
2023-04-16T09:09:13.120Z,96016.00
2023-04-16T09:11:40.482Z,96025.19
2023-04-16T09:14:11.829Z,96031.75
2023-04-16T09:16:40.318Z,96033.28
2023-04-16T09:19:07.886Z,96028.41
2023-04-16T09:21:36.212Z,96036.19
2023-04-16T09:24:04.299Z,96032.28
2023-04-16T09:26:31.951Z,96033.75
2023-04-16T09:28:59.425Z,96026.84
2023-04-16T09:31:27.705Z,96035.97
2023-04-16T09:34:15.184Z,96034.72
2023-04-16T09:36:43.214Z,96032.03
2023-04-16T09:39:20.232Z,96023.22
2023-04-16T09:41:48.457Z,96029.25
2023-04-16T09:44:15.742Z,96035.31
2023-04-16T09:46:44.313Z,96032.19
2023-04-16T09:49:15.236Z,96034.78
2023-04-16T09:51:43.698Z,96039.00
2023-04-16T09:54:11.268Z,96040.53
2023-04-16T09:56:47.324Z,96032.19
2023-04-16T09:59:22.005Z,96042.41
2023-04-16T10:01:50.194Z,96042.50
2023-04-16T10:04:17.860Z,96036.78
2023-04-16T10:06:47.406Z,96041.69
2023-04-16T10:09:14.635Z,96044.13
2023-04-16T10:11:42.035Z,96042.56
2023-04-16T10:14:09.501Z,96046.13
2023-04-16T10:16:37.246Z,96046.78
2023-04-16T10:19:05.263Z,96043.97
2023-04-16T10:21:34.539Z,96046.13
2023-04-16T10:24:02.139Z,96053.78
2023-04-16T10:26:30.935Z,96057.75
2023-04-16T10:28:59.854Z,96053.41
2023-04-16T10:31:29.259Z,96054.38
2023-04-16T10:33:57.272Z,96047.28
2023-04-16T10:36:26.838Z,96052.06
2023-04-16T10:38:59.083Z,96052.72
2023-04-16T10:41:27.231Z,96046.56
2023-04-16T10:44:07.153Z,96047.84
2023-04-16T10:46:45.141Z,96054.16
2023-04-16T10:49:25.396Z,96047.00
2023-04-16T10:52:00.681Z,96049.19
2023-04-16T10:54:31.998Z,96043.34
2023-04-16T10:57:04.464Z,96049.69
2023-04-16T10:59:35.308Z,96055.56
2023-04-16T11:02:09.749Z,96056.50
2023-04-16T11:04:39.313Z,96056.69
2023-04-16T11:07:16.051Z,96053.06
2023-04-16T11:10:04.825Z,96053.63
2023-04-16T11:12:38.834Z,96061.81
2023-04-16T11:15:10.994Z,96067.66
2023-04-16T11:17:45.758Z,96070.81
2023-04-16T11:20:20.467Z,96065.81
2023-04-16T11:22:53.588Z,96070.81
2023-04-16T11:25:22.124Z,96068.66
2023-04-16T11:27:50.098Z,96068.66
2023-04-16T11:30:18.027Z,96071.66
2023-04-16T11:32:45.745Z,96075.47
2023-04-16T11:35:18.890Z,96066.13
2023-04-16T11:37:49.030Z,96061.13
2023-04-16T11:40:16.370Z,96074.78
2023-04-16T11:42:44.699Z,96085.59
2023-04-16T11:45:12.873Z,96077.97
2023-04-16T11:47:58.332Z,96081.75
2023-04-16T11:50:29.570Z,96083.59
2023-04-16T11:53:03.810Z,96073.63
2023-04-16T11:55:31.474Z,96075.31
2023-04-16T11:58:12.574Z,96082.91
2023-04-16T12:00:41.961Z,96080.91
2023-04-16T12:03:09.648Z,96085.91
2023-04-16T12:05:41.916Z,96089.88
2023-04-16T12:08:10.983Z,96085.09
2023-04-16T12:10:54.339Z,96079.28
2023-04-16T12:13:21.801Z,96085.75
2023-04-16T12:15:54.278Z,96082.09
2023-04-16T12:18:24.139Z,96073.59
2023-04-16T12:20:51.686Z,96071.56
2023-04-16T12:23:30.665Z,96079.56
2023-04-16T12:26:03.080Z,96087.69
2023-04-16T12:28:33.434Z,96079.72
2023-04-16T12:31:01.950Z,96078.31
2023-04-16T12:33:29.911Z,96085.56
2023-04-16T12:35:57.324Z,96085.34
2023-04-16T12:38:25.911Z,96086.44
2023-04-16T12:40:57.093Z,96084.38
2023-04-16T12:43:25.515Z,96082.72
2023-04-16T12:45:52.972Z,96080.47
2023-04-16T12:48:20.373Z,96079.06
2023-04-16T12:50:47.863Z,96084.13
2023-04-16T12:53:15.226Z,96086.66
2023-04-16T12:55:42.509Z,96091.25
2023-04-16T12:58:11.871Z,96084.34
2023-04-16T13:00:40.854Z,96081.53
2023-04-16T13:03:08.485Z,96089.69
2023-04-16T13:05:35.824Z,96085.56
2023-04-16T13:08:03.262Z,96081.84
2023-04-16T13:10:30.633Z,96085.97
2023-04-16T13:12:57.895Z,96080.28
2023-04-16T13:15:25.120Z,96072.97
2023-04-16T13:17:52.484Z,96080.13
2023-04-16T13:20:19.719Z,96074.81
2023-04-16T13:22:47.034Z,96077.41
2023-04-16T13:25:14.247Z,96072.63
2023-04-16T13:27:41.966Z,96078.09
2023-04-16T13:30:09.552Z,96082.09
2023-04-16T13:32:36.957Z,96079.72
2023-04-16T13:35:05.118Z,96079.88
2023-04-16T13:37:32.481Z,96084.56
2023-04-16T13:39:59.715Z,96088.22
2023-04-16T13:42:27.225Z,96089.56
2023-04-16T13:44:55.339Z,96094.03
2023-04-16T13:47:22.663Z,96092.41
2023-04-16T13:49:49.949Z,96104.03
2023-04-16T13:52:17.259Z,96102.72
2023-04-16T13:54:44.521Z,96099.09
2023-04-16T13:57:20.259Z,96094.25
2023-04-16T13:59:47.540Z,96099.56
2023-04-16T14:02:15.437Z,96099.72
2023-04-16T14:04:42.662Z,96100.72
2023-04-16T14:07:09.966Z,96091.38
2023-04-16T14:09:37.230Z,96098.38
2023-04-16T14:12:04.768Z,96099.06
2023-04-16T14:14:32.241Z,96103.88
2023-04-16T14:17:00.120Z,96099.25
2023-04-16T14:19:27.353Z,96101.72
2023-04-16T14:21:54.843Z,96097.41
2023-04-16T14:24:22.034Z,96106.38
2023-04-16T14:26:49.248Z,96096.91
2023-04-16T14:29:16.490Z,96096.22
2023-04-16T14:31:43.753Z,96103.72
2023-04-16T14:34:11.221Z,96103.38
2023-04-16T14:36:38.652Z,96105.88
2023-04-16T14:39:05.820Z,96104.56
2023-04-16T14:41:33.010Z,96101.38
2023-04-16T14:44:00.357Z,96103.06
2023-04-16T14:46:27.613Z,96107.06
2023-04-16T14:48:54.980Z,96106.53
2023-04-16T14:51:22.328Z,96105.53
2023-04-16T14:53:49.636Z,96106.81
2023-04-16T14:56:16.910Z,96107.34
2023-04-16T14:58:44.152Z,96109.59
2023-04-16T15:01:13.954Z,96110.91
2023-04-16T15:03:42.235Z,96110.50
2023-04-16T15:06:11.451Z,96110.91
2023-04-16T15:08:39.009Z,96104.28
2023-04-16T15:11:06.240Z,96115.88
2023-04-16T15:13:36.789Z,96112.91
2023-04-16T15:16:07.456Z,96114.25
2023-04-16T15:18:34.861Z,96104.00
2023-04-16T15:21:02.081Z,96111.31
2023-04-16T15:23:29.395Z,96114.19
2023-04-16T15:25:56.751Z,96112.06
2023-04-16T15:28:24.241Z,96112.75
2023-04-16T15:30:52.565Z,96106.47
2023-04-16T15:33:23.212Z,96114.72
2023-04-16T15:35:51.929Z,96103.78
2023-04-16T15:38:21.849Z,96109.63
2023-04-16T15:40:49.199Z,96111.56
2023-04-16T15:43:17.040Z,96107.81
2023-04-16T15:45:44.242Z,96109.78
2023-04-16T15:48:11.663Z,96108.06
2023-04-16T15:50:39.037Z,96111.56
2023-04-16T15:53:06.333Z,96112.97
2023-04-16T15:55:33.579Z,96113.41
2023-04-16T15:58:01.068Z,96121.28
2023-04-16T16:00:28.312Z,96124.72
2023-04-16T16:02:55.647Z,96127.19
2023-04-16T16:05:23.012Z,96122.22
2023-04-16T16:07:50.354Z,96130.53
2023-04-16T16:10:17.770Z,96130.88
2023-04-16T16:12:45.283Z,96125.31
2023-04-16T16:15:12.826Z,96130.81
2023-04-16T16:17:41.240Z,96130.63
2023-04-16T16:20:11.404Z,96119.75
2023-04-16T16:22:39.522Z,96136.22
2023-04-16T16:25:07.753Z,96126.81
2023-04-16T16:27:36.652Z,96129.16
2023-04-16T16:30:07.094Z,96130.38
2023-04-16T16:32:34.589Z,96137.00
2023-04-16T16:35:02.067Z,96130.78
2023-04-16T16:37:29.817Z,96135.84
2023-04-16T16:39:57.172Z,96128.88
2023-04-16T16:42:24.588Z,96137.81
2023-04-16T16:44:51.942Z,96131.50
2023-04-16T16:47:19.271Z,96136.34
2023-04-16T16:49:46.991Z,96126.78
2023-04-16T16:52:14.483Z,96130.53
2023-04-16T16:54:43.281Z,96124.31
2023-04-16T16:57:10.686Z,96133.91
2023-04-16T16:59:37.893Z,96131.31
2023-04-16T17:02:06.043Z,96137.59
2023-04-16T17:04:33.320Z,96142.59
2023-04-16T17:07:00.872Z,96151.00
2023-04-16T17:09:28.265Z,96154.34
2023-04-16T17:11:55.548Z,96158.69
2023-04-16T17:14:22.875Z,96164.53
2023-04-16T17:16:50.412Z,96165.66
2023-04-16T17:19:18.263Z,96168.31
2023-04-16T17:21:45.946Z,96174.03
2023-04-16T17:24:13.346Z,96176.09
2023-04-16T17:26:41.653Z,96177.19
2023-04-16T17:29:08.998Z,96177.34
2023-04-16T17:31:36.859Z,96183.06
2023-04-16T17:34:06.508Z,96191.25
2023-04-16T17:36:33.836Z,96189.88
2023-04-16T17:39:01.245Z,96200.00
2023-04-16T17:41:28.508Z,96193.47
2023-04-16T17:43:55.892Z,96198.47
2023-04-16T17:46:23.341Z,96203.44
2023-04-16T17:48:50.745Z,96198.84
2023-04-16T17:51:18.014Z,96190.78
2023-04-16T17:53:45.536Z,96191.59
2023-04-16T17:56:13.985Z,96194.22
2023-04-16T17:58:41.333Z,96201.13
2023-04-16T18:01:08.900Z,96206.38
2023-04-16T18:03:37.835Z,96210.78
2023-04-16T18:06:05.463Z,96211.44
2023-04-16T18:08:34.154Z,96215.59
2023-04-16T18:11:01.405Z,96214.16
2023-04-16T18:13:28.741Z,96219.72
2023-04-16T18:15:56.448Z,96226.09
2023-04-16T18:18:23.911Z,96226.22
2023-04-16T18:20:52.862Z,96227.16
2023-04-16T18:23:20.214Z,96233.03
2023-04-16T18:25:48.832Z,96232.63
2023-04-16T18:28:18.185Z,96234.31
2023-04-16T18:30:45.979Z,96240.28
2023-04-16T18:35:43.719Z,96237.66
2023-04-16T18:38:11.050Z,96241.97
2023-04-16T18:40:38.234Z,96241.25
2023-04-16T18:43:06.098Z,96239.69
2023-04-16T18:45:34.340Z,96250.66
2023-04-16T18:48:04.248Z,96251.06
2023-04-16T18:50:31.578Z,96258.63
2023-04-16T18:52:58.848Z,96257.75
2023-04-16T18:55:26.367Z,96262.00
2023-04-16T18:57:53.739Z,96260.00
2023-04-16T19:00:21.185Z,96265.22
2023-04-16T19:02:48.700Z,96271.13
2023-04-16T19:05:16.189Z,96271.59
2023-04-16T19:07:43.505Z,96268.63
2023-04-16T19:10:10.994Z,96267.84
2023-04-16T19:12:38.340Z,96276.53
2023-04-16T19:15:06.148Z,96270.03
2023-04-16T19:17:33.535Z,96265.56
2023-04-16T19:20:01.006Z,96274.19
2023-04-16T19:22:28.689Z,96280.06
2023-04-16T19:24:56.095Z,96274.69
2023-04-16T19:27:23.412Z,96271.84
2023-04-16T19:29:50.722Z,96274.25
2023-04-16T19:32:18.013Z,96277.44
2023-04-16T19:34:45.360Z,96276.97
2023-04-16T19:37:12.694Z,96276.50
2023-04-16T19:39:40.008Z,96281.25
2023-04-16T19:42:07.682Z,96283.31
2023-04-16T19:44:36.208Z,96282.69
2023-04-16T19:47:03.641Z,96272.53
2023-04-16T19:49:34.479Z,96285.09
2023-04-16T19:52:02.171Z,96271.59
2023-04-16T19:54:29.575Z,96272.06
2023-04-16T19:56:57.605Z,96275.03
2023-04-16T19:59:28.442Z,96266.78
2023-04-16T20:01:55.630Z,96275.84
2023-04-16T20:04:22.987Z,96277.53
2023-04-16T20:06:50.320Z,96280.41
2023-04-16T20:09:20.510Z,96273.47
2023-04-16T20:11:48.169Z,96273.81
2023-04-16T20:14:15.673Z,96283.72
2023-04-16T20:16:44.002Z,96285.00
2023-04-16T20:19:11.639Z,96288.09
2023-04-16T20:21:40.739Z,96288.47
2023-04-16T20:24:11.240Z,96287.84
2023-04-16T20:26:38.499Z,96287.47
2023-04-16T20:29:06.141Z,96291.41
2023-04-16T20:31:33.350Z,96283.97
2023-04-16T20:34:00.995Z,96291.25
2023-04-16T20:36:28.317Z,96288.72
2023-04-16T20:38:55.764Z,96286.41
2023-04-16T20:41:23.061Z,96285.72
2023-04-16T20:43:53.279Z,96279.53
2023-04-16T20:46:24.752Z,96278.53
2023-04-16T20:48:52.250Z,96276.06
2023-04-16T20:51:20.290Z,96272.81
2023-04-16T20:53:47.857Z,96285.34
2023-04-16T20:56:15.261Z,96286.16
2023-04-16T20:58:45.523Z,96274.84
2023-04-16T21:01:12.996Z,96280.78
2023-04-16T21:03:40.401Z,96286.03
2023-04-16T21:06:07.986Z,96287.84
2023-04-16T21:08:35.837Z,96287.41
2023-04-16T21:11:03.190Z,96290.28
2023-04-16T21:13:30.462Z,96284.47
2023-04-16T21:15:57.734Z,96289.75
2023-04-16T21:18:25.004Z,96288.22
2023-04-16T21:20:52.184Z,96286.56
2023-04-16T21:23:19.624Z,96290.06
2023-04-16T21:25:46.979Z,96290.06
2023-04-16T21:28:14.372Z,96289.97
2023-04-16T21:30:42.216Z,96292.50
2023-04-16T21:33:09.516Z,96295.34
2023-04-16T21:35:36.745Z,96294.91
2023-04-16T21:38:04.079Z,96285.56
2023-04-16T21:40:31.332Z,96290.25
2023-04-16T21:42:58.696Z,96283.66
2023-04-16T21:45:25.915Z,96286.78
2023-04-16T21:47:53.204Z,96294.31
2023-04-16T21:50:20.793Z,96289.38
2023-04-16T21:52:48.134Z,96281.88
2023-04-16T21:55:15.432Z,96287.47
2023-04-16T21:57:42.727Z,96292.25
2023-04-16T22:00:14.577Z,96291.72
2023-04-16T22:02:45.058Z,96293.19
2023-04-16T22:05:12.657Z,96281.31
2023-04-16T22:07:40.163Z,96280.09
2023-04-16T22:10:09.423Z,96286.66
2023-04-16T22:12:40.161Z,96281.84
2023-04-16T22:15:08.406Z,96280.78
2023-04-16T22:17:35.731Z,96277.06
2023-04-16T22:20:09.351Z,96278.63
2023-04-16T22:22:36.647Z,96275.00
2023-04-16T22:25:04.276Z,96275.81
2023-04-16T22:27:31.634Z,96272.50
2023-04-16T22:29:58.886Z,96266.88
2023-04-16T22:32:26.551Z,96265.84
2023-04-16T22:34:53.894Z,96264.78
2023-04-16T22:37:21.271Z,96256.09
2023-04-16T22:39:48.476Z,96264.75
2023-04-16T22:42:15.772Z,96264.75
2023-04-16T22:44:42.940Z,96265.97
2023-04-16T22:47:10.192Z,96271.47
2023-04-16T22:49:37.394Z,96274.56
2023-04-16T22:52:04.796Z,96272.66
2023-04-16T22:54:32.882Z,96270.63
2023-04-16T22:57:00.350Z,96277.19
2023-04-16T22:59:27.614Z,96272.41
2023-04-16T23:01:55.015Z,96268.47
2023-04-16T23:04:22.448Z,96268.09
2023-04-16T23:06:49.822Z,96273.09
2023-04-16T23:09:17.343Z,96275.34
2023-04-16T23:11:44.563Z,96267.94
2023-04-16T23:14:16.234Z,96278.53
2023-04-16T23:16:44.222Z,96277.69
2023-04-16T23:19:15.295Z,96277.84
2023-04-16T23:21:42.655Z,96270.19
2023-04-16T23:24:09.933Z,96278.91
2023-04-16T23:26:37.217Z,96273.28
2023-04-16T23:29:04.561Z,96269.25
2023-04-16T23:31:32.027Z,96270.69
2023-04-16T23:33:59.240Z,96268.44
2023-04-16T23:36:27.272Z,96269.78
2023-04-16T23:38:54.591Z,96264.53
2023-04-16T23:41:23.608Z,96272.66
2023-04-16T23:43:51.075Z,96267.88
2023-04-16T23:46:18.402Z,96263.81
2023-04-16T23:48:45.657Z,96273.16
2023-04-16T23:51:12.983Z,96270.38
2023-04-16T23:53:41.208Z,96264.78
2023-04-16T23:56:11.621Z,96261.78
2023-04-16T23:58:38.912Z,96263.94
